Saturday, November 01, 2014
06:13 UTC
  |  Log In   |  Register Free
Airport Search:

Carmi Municipal Airport
(KCUL)

Carmi Municipal Airport Diagram
No Airport Diagram Available

FAA data valid effective September 18, 2014 - November 13, 2014 (unless otherwise noted).

 
 
 
 
 
 
 
 
 
 
 
 
 
 

Current Aviation Weather for Carmi Municipal Airport (KCUL)

The most recent METAR observation for KCUL was updated at: 0610
METAR Summary (Translated METAR)
KCUL
010555Z AUTO 32016G21KT 10SM SCT034 OVC048 03/M03 A3027 RMK AO2 T00341031 10066 20034 401050034
KFWC
010555Z AUTO 32008KT 290V350 10SM SCT037 OVC049 02/M05 A3029 RMK AO1 T00211050 10055 20021 400920021
(22.1 nm NW from KCUL)
KHSB
010555Z AUTO 34010G19KT 10SM CLR 02/M06 A3030 RMK AO2 T00201056 10062 20020 401030020
(26.2 nm SW from KCUL)
TAF
No TAF information found within 50 nm of KCUL
  Airport Weather Conditions for KCUL

 Current Weather at CUL
39° F
Fair
Northwest winds at 18.4 mph
CUL NOAA Radar

Pressure: 30.26 in
Humidity: 60%
Wind: from the Northwest at 18.4 gusting to 27.6 MPH (16 gusting to 24 KT)
Dew Point: 25.9°F
Visibility: 10.00 mi


Airport Weather Forecast for KCUL

Translated METAR and TAF for KCUL
Translated METAR for KCUL (0609 UTC 01 November 2014)
found at http://aviationweather.gov/adds/metars/
 
METAR text: KCUL 010555Z AUTO 32016G21KT 10SM SCT034 OVC048 03/M03 A3027 RMK AO2 T00341031 10066 20034 401050034
Conditions at: KCUL (CARMI MUNI , IL, US) observed 0555 UTC 01 November 2014
Temperature: 3.4°C (38°F)
Dewpoint: -3.1°C (26°F) [RH = 62%]
Pressure (altimeter): 30.27 inches Hg (1025.1 mb)
Winds: from the NW (320 degrees) at 18 MPH (16 knots; 8.3 m/s)
gusting to 24 MPH (21 knots; 10.9 m/s)
Visibility: 10 or more miles (16+ km)
Ceiling: 4800 feet AGL
Clouds: scattered clouds at 3400 feet AGL
overcast cloud deck at 4800 feet AGL
Weather: automated observation with no human augmentation;
there may or may not be significant weather present at this time
Translated TAF for KCUL

There is no translated TAF available for this airport

Find All Airport Services Find A Hotel Find A Rental Car Find A Golf Course Find A Restaurant $100 Hamburger



FBO's on the Field
FBO Company Facility Photos Services Transportation Aviation Fuel Prices: Prices include tax
Catering Weather Repair Courtesy Rental Type 100LL JetA JetA+ MOGAS 8087
 
Carmi Municipal Airport

This FBO has not yet been rated
FS:Shell
Last Updated: Oct-07
Login to update fuel prices
SS:
Contact Carmi Municipal AirportMore FBO Information
 
Carmi Municipal Airport

This FBO has not yet been rated
FS:Shell
Last Updated: Oct-03
Login to update fuel prices
SS:
Contact Carmi Municipal AirportMore FBO Information
 
Add another FBO Facility Photos Catering Weather Repair Courtesy Rental Type 100LL JetA JetA+ MOGAS 8087
Services Transportation Aviation Fuel Prices: Prices include tax


model-print
model-print
model-print
model-print